CheckWX is a tool to help pilots better visualize weather data.  It is not intended as a substitute for an official pre-flight weather briefing.

21:26:35 UTC

KBQP METAR
Morehouse Memorial Airport
Bastrop, Louisiana, USA
Current

32 mins ago

KBQP 252055Z AUTO 19003KT 10SM CLR 29/19 A2978 RMK AO2 T02850191 TSNO
Observed
May-25 @ 20:55 UTC
Wind
  • 190° at 3 KTS
Visibility
Flight Rules
VFR
Cloud Levels
  • Clear skies
Temperature
28°C / 82°F
Dewpoint
19°C / 66°F
Humidity
58%
Altimeter
29.78" Hg
Pressure
1008.42 hPa
Previous

52 mins ago

KBQP 252035Z AUTO 00000KT 10SM SCT050 SCT060 27/18 A2979 RMK AO2 T02720180 TSNO
Observed
May-25 @ 20:35 UTC
Visibility
Flight Rules
VFR
Cloud Levels
  • Scattered at 5,000' AGL
  • Scattered at 6,000' AGL
Temperature
27°C / 81°F
Dewpoint
18°C / 64°F
Humidity
58%
Altimeter
29.79" Hg
Pressure
1008.82 hPa
Previous

1 hour ago

KBQP 252015Z AUTO 13006KT 10SM BKN050 BKN060 30/19 A2980 RMK AO2 T02990189 TSNO
Observed
May-25 @ 20:15 UTC
Wind
  • 130° at 6 KTS
Visibility
Flight Rules
VFR
Cloud Levels
  • Broken at 5,000' AGL
  • Broken at 6,000' AGL
Temperature
30°C / 86°F
Dewpoint
19°C / 66°F
Humidity
52%
Altimeter
29.8" Hg
Pressure
1009.12 hPa